sensor_id;sensor_type;location;lat;lon;timestamp;P1;durP1;ratioP1;P2;durP2;ratioP2
1082;SDS011;530;51.448;7.238;2022-09-09T00:07:40;3.10;;;1.10;;
1082;SDS011;530;51.448;7.238;2022-09-09T00:10:25;2.97;;;0.90;;
1082;SDS011;530;51.448;7.238;2022-09-09T00:18:54;2.03;;;1.20;;
1082;SDS011;530;51.448;7.238;2022-09-09T00:22:42;1.13;;;0.77;;
1082;SDS011;530;51.448;7.238;2022-09-09T00:24:43;1.27;;;1.07;;
1082;SDS011;530;51.448;7.238;2022-09-09T00:27:30;1.17;;;0.87;;
1082;SDS011;530;51.448;7.238;2022-09-09T00:30:19;1.47;;;0.80;;
1082;SDS011;530;51.448;7.238;2022-09-09T00:32:50;2.17;;;0.90;;
1082;SDS011;530;51.448;7.238;2022-09-09T00:35:31;1.67;;;0.87;;
1082;SDS011;530;51.448;7.238;2022-09-09T00:38:01;2.73;;;0.90;;
1082;SDS011;530;51.448;7.238;2022-09-09T00:40:37;1.73;;;0.87;;
1082;SDS011;530;51.448;7.238;2022-09-09T00:43:24;2.67;;;1.07;;
1082;SDS011;530;51.448;7.238;2022-09-09T00:51:29;2.43;;;1.23;;
1082;SDS011;530;51.448;7.238;2022-09-09T00:59:31;0.83;;;0.63;;
1082;SDS011;530;51.448;7.238;2022-09-09T01:02:21;1.10;;;0.83;;
1082;SDS011;530;51.448;7.238;2022-09-09T01:05:33;2.00;;;1.27;;
1082;SDS011;530;51.448;7.238;2022-09-09T01:07:54;1.33;;;1.10;;
1082;SDS011;530;51.448;7.238;2022-09-09T01:10:36;1.40;;;1.03;;
1082;SDS011;530;51.448;7.238;2022-09-09T01:13:20;1.60;;;1.27;;
1082;SDS011;530;51.448;7.238;2022-09-09T01:15:55;2.40;;;1.37;;
1082;SDS011;530;51.448;7.238;2022-09-09T01:18:26;2.43;;;1.40;;
1082;SDS011;530;51.448;7.238;2022-09-09T01:26:52;2.30;;;1.73;;
1082;SDS011;530;51.448;7.238;2022-09-09T01:29:23;3.13;;;2.00;;
1082;SDS011;530;51.448;7.238;2022-09-09T01:31:54;1.53;;;1.43;;
1082;SDS011;530;51.448;7.238;2022-09-09T01:34:21;2.00;;;1.90;;
1082;SDS011;530;51.448;7.238;2022-09-09T01:36:58;2.10;;;2.00;;
1082;SDS011;530;51.448;7.238;2022-09-09T01:39:37;1.90;;;1.70;;
1082;SDS011;530;51.448;7.238;2022-09-09T01:42:06;3.10;;;2.20;;
1082;SDS011;530;51.448;7.238;2022-09-09T01:44:34;5.90;;;2.87;;
1082;SDS011;530;51.448;7.238;2022-09-09T01:47:01;3.00;;;2.47;;
1082;SDS011;530;51.448;7.238;2022-09-09T01:49:27;3.00;;;2.70;;
1082;SDS011;530;51.448;7.238;2022-09-09T01:51:54;3.60;;;2.80;;
1082;SDS011;530;51.448;7.238;2022-09-09T01:54:21;3.60;;;2.80;;
1082;SDS011;530;51.448;7.238;2022-09-09T01:56:56;3.93;;;2.93;;
1082;SDS011;530;51.448;7.238;2022-09-09T02:02:46;4.40;;;2.73;;
1082;SDS011;530;51.448;7.238;2022-09-09T02:05:17;3.23;;;2.70;;
1082;SDS011;530;51.448;7.238;2022-09-09T02:07:56;5.13;;;3.10;;
1082;SDS011;530;51.448;7.238;2022-09-09T02:10:32;3.70;;;2.33;;
1082;SDS011;530;51.448;7.238;2022-09-09T02:13:16;2.80;;;2.27;;
1082;SDS011;530;51.448;7.238;2022-09-09T02:15:47;5.20;;;2.93;;
1082;SDS011;530;51.448;7.238;2022-09-09T02:18:24;3.23;;;2.60;;
1082;SDS011;530;51.448;7.238;2022-09-09T02:21:01;4.10;;;2.60;;
1082;SDS011;530;51.448;7.238;2022-09-09T02:23:28;2.60;;;2.40;;
1082;SDS011;530;51.448;7.238;2022-09-09T02:25:54;3.77;;;2.40;;
1082;SDS011;530;51.448;7.238;2022-09-09T02:28:22;3.00;;;2.23;;
1082;SDS011;530;51.448;7.238;2022-09-09T02:30:51;4.23;;;2.80;;
1082;SDS011;530;51.448;7.238;2022-09-09T02:33:22;2.70;;;2.00;;
1082;SDS011;530;51.448;7.238;2022-09-09T02:35:51;2.57;;;2.37;;
1082;SDS011;530;51.448;7.238;2022-09-09T02:38:19;3.90;;;2.40;;
1082;SDS011;530;51.448;7.238;2022-09-09T02:40:47;5.90;;;2.40;;
1082;SDS011;530;51.448;7.238;2022-09-09T02:43:14;3.30;;;2.37;;
1082;SDS011;530;51.448;7.238;2022-09-09T02:45:47;3.97;;;2.70;;
1082;SDS011;530;51.448;7.238;2022-09-09T02:48:28;3.30;;;2.43;;
1082;SDS011;530;51.448;7.238;2022-09-09T02:51:15;3.13;;;2.47;;
1082;SDS011;530;51.448;7.238;2022-09-09T02:53:56;5.17;;;3.07;;
1082;SDS011;530;51.448;7.238;2022-09-09T02:56:25;3.63;;;2.10;;
1082;SDS011;530;51.448;7.238;2022-09-09T02:58:55;2.40;;;2.20;;
1082;SDS011;530;51.448;7.238;2022-09-09T03:01:21;7.77;;;2.50;;
1082;SDS011;530;51.448;7.238;2022-09-09T03:03:46;2.60;;;2.40;;
1082;SDS011;530;51.448;7.238;2022-09-09T03:06:13;2.93;;;2.20;;
1082;SDS011;530;51.448;7.238;2022-09-09T03:08:39;5.00;;;2.73;;
1082;SDS011;530;51.448;7.238;2022-09-09T03:11:05;3.83;;;2.10;;
1082;SDS011;530;51.448;7.238;2022-09-09T03:13:31;2.17;;;1.70;;
1082;SDS011;530;51.448;7.238;2022-09-09T03:15:56;3.27;;;1.70;;
1082;SDS011;530;51.448;7.238;2022-09-09T03:18:22;3.97;;;2.03;;
1082;SDS011;530;51.448;7.238;2022-09-09T03:20:48;4.47;;;2.00;;
1082;SDS011;530;51.448;7.238;2022-09-09T03:23:16;5.63;;;1.67;;
1082;SDS011;530;51.448;7.238;2022-09-09T03:25:51;2.13;;;1.93;;
1082;SDS011;530;51.448;7.238;2022-09-09T03:28:18;4.40;;;1.77;;
1082;SDS011;530;51.448;7.238;2022-09-09T03:30:45;2.40;;;1.60;;
1082;SDS011;530;51.448;7.238;2022-09-09T03:33:11;3.20;;;1.83;;
1082;SDS011;530;51.448;7.238;2022-09-09T03:35:37;2.10;;;1.70;;
1082;SDS011;530;51.448;7.238;2022-09-09T03:38:04;2.60;;;1.60;;
1082;SDS011;530;51.448;7.238;2022-09-09T03:40:29;3.40;;;2.03;;
1082;SDS011;530;51.448;7.238;2022-09-09T03:42:56;3.17;;;1.67;;
1082;SDS011;530;51.448;7.238;2022-09-09T03:45:21;2.40;;;1.47;;
1082;SDS011;530;51.448;7.238;2022-09-09T03:47:47;4.03;;;1.50;;
1082;SDS011;530;51.448;7.238;2022-09-09T03:50:12;2.80;;;1.60;;
1082;SDS011;530;51.448;7.238;2022-09-09T03:52:39;2.30;;;1.70;;
1082;SDS011;530;51.448;7.238;2022-09-09T03:55:06;2.80;;;2.00;;
1082;SDS011;530;51.448;7.238;2022-09-09T03:57:33;2.67;;;1.60;;
1082;SDS011;530;51.448;7.238;2022-09-09T04:00:04;1.90;;;1.60;;
1082;SDS011;530;51.448;7.238;2022-09-09T04:02:31;3.30;;;1.80;;
1082;SDS011;530;51.448;7.238;2022-09-09T04:04:57;3.10;;;1.43;;
1082;SDS011;530;51.448;7.238;2022-09-09T04:07:23;4.70;;;2.10;;
1082;SDS011;530;51.448;7.238;2022-09-09T04:09:48;3.43;;;1.67;;
1082;SDS011;530;51.448;7.238;2022-09-09T04:12:14;2.20;;;1.57;;
1082;SDS011;530;51.448;7.238;2022-09-09T04:14:41;3.97;;;2.50;;
1082;SDS011;530;51.448;7.238;2022-09-09T04:17:07;2.93;;;1.63;;
1082;SDS011;530;51.448;7.238;2022-09-09T04:19:32;5.80;;;2.10;;
1082;SDS011;530;51.448;7.238;2022-09-09T04:21:58;5.20;;;1.73;;
1082;SDS011;530;51.448;7.238;2022-09-09T04:24:24;3.30;;;1.83;;
1082;SDS011;530;51.448;7.238;2022-09-09T04:26:52;3.07;;;1.60;;
1082;SDS011;530;51.448;7.238;2022-09-09T04:29:18;5.90;;;1.80;;
1082;SDS011;530;51.448;7.238;2022-09-09T04:31:43;2.50;;;1.60;;
1082;SDS011;530;51.448;7.238;2022-09-09T04:34:09;2.13;;;1.87;;
1082;SDS011;530;51.448;7.238;2022-09-09T04:36:35;5.43;;;1.70;;
1082;SDS011;530;51.448;7.238;2022-09-09T04:39:01;4.63;;;1.83;;
1082;SDS011;530;51.448;7.238;2022-09-09T04:41:27;2.97;;;1.73;;
1082;SDS011;530;51.448;7.238;2022-09-09T04:43:53;3.60;;;1.60;;
1082;SDS011;530;51.448;7.238;2022-09-09T04:46:20;2.33;;;1.80;;
1082;SDS011;530;51.448;7.238;2022-09-09T04:48:48;4.70;;;2.23;;
1082;SDS011;530;51.448;7.238;2022-09-09T04:51:14;3.40;;;2.13;;
1082;SDS011;530;51.448;7.238;2022-09-09T04:53:40;2.60;;;1.83;;
1082;SDS011;530;51.448;7.238;2022-09-09T04:56:10;4.97;;;2.10;;
1082;SDS011;530;51.448;7.238;2022-09-09T04:58:38;3.90;;;2.47;;
1082;SDS011;530;51.448;7.238;2022-09-09T05:01:06;5.50;;;1.90;;
1082;SDS011;530;51.448;7.238;2022-09-09T05:03:32;7.50;;;2.30;;
1082;SDS011;530;51.448;7.238;2022-09-09T05:06:02;2.13;;;1.53;;
1082;SDS011;530;51.448;7.238;2022-09-09T05:08:33;3.70;;;2.47;;
1082;SDS011;530;51.448;7.238;2022-09-09T05:10:59;3.30;;;2.10;;
1082;SDS011;530;51.448;7.238;2022-09-09T05:13:28;5.57;;;1.80;;
1082;SDS011;530;51.448;7.238;2022-09-09T05:15:56;4.60;;;2.17;;
1082;SDS011;530;51.448;7.238;2022-09-09T05:18:21;2.23;;;1.90;;
1082;SDS011;530;51.448;7.238;2022-09-09T05:20:48;2.60;;;2.30;;
1082;SDS011;530;51.448;7.238;2022-09-09T05:23:14;3.50;;;2.43;;
1082;SDS011;530;51.448;7.238;2022-09-09T05:25:40;3.90;;;2.33;;
1082;SDS011;530;51.448;7.238;2022-09-09T05:28:05;4.67;;;2.20;;
1082;SDS011;530;51.448;7.238;2022-09-09T05:30:32;6.57;;;2.60;;
1082;SDS011;530;51.448;7.238;2022-09-09T05:32:58;2.50;;;1.70;;
1082;SDS011;530;51.448;7.238;2022-09-09T05:35:24;3.40;;;1.87;;
1082;SDS011;530;51.448;7.238;2022-09-09T05:37:50;3.70;;;2.20;;
1082;SDS011;530;51.448;7.238;2022-09-09T05:40:16;6.77;;;2.60;;
1082;SDS011;530;51.448;7.238;2022-09-09T05:42:42;3.60;;;2.17;;
1082;SDS011;530;51.448;7.238;2022-09-09T05:45:08;2.50;;;2.17;;
1082;SDS011;530;51.448;7.238;2022-09-09T05:47:34;3.00;;;2.33;;
1082;SDS011;530;51.448;7.238;2022-09-09T05:50:01;3.37;;;2.20;;
1082;SDS011;530;51.448;7.238;2022-09-09T05:52:27;7.93;;;2.40;;
1082;SDS011;530;51.448;7.238;2022-09-09T05:54:53;4.13;;;2.17;;
1082;SDS011;530;51.448;7.238;2022-09-09T05:57:21;3.70;;;1.80;;
1082;SDS011;530;51.448;7.238;2022-09-09T05:59:47;5.87;;;2.07;;
1082;SDS011;530;51.448;7.238;2022-09-09T06:02:12;5.10;;;2.00;;
1082;SDS011;530;51.448;7.238;2022-09-09T06:04:38;4.50;;;2.17;;
1082;SDS011;530;51.448;7.238;2022-09-09T06:07:04;3.10;;;2.37;;
1082;SDS011;530;51.448;7.238;2022-09-09T06:09:30;1.83;;;1.60;;
1082;SDS011;530;51.448;7.238;2022-09-09T06:11:56;4.33;;;2.23;;
1082;SDS011;530;51.448;7.238;2022-09-09T06:14:23;5.47;;;2.40;;
1082;SDS011;530;51.448;7.238;2022-09-09T06:16:50;6.37;;;2.63;;
1082;SDS011;530;51.448;7.238;2022-09-09T06:19:16;3.23;;;2.43;;
1082;SDS011;530;51.448;7.238;2022-09-09T06:21:42;4.00;;;2.33;;
1082;SDS011;530;51.448;7.238;2022-09-09T06:24:09;5.37;;;2.57;;
1082;SDS011;530;51.448;7.238;2022-09-09T06:26:38;4.70;;;2.40;;
1082;SDS011;530;51.448;7.238;2022-09-09T06:29:08;3.53;;;2.23;;
1082;SDS011;530;51.448;7.238;2022-09-09T06:31:34;5.27;;;2.20;;
1082;SDS011;530;51.448;7.238;2022-09-09T06:34:02;3.87;;;2.07;;
1082;SDS011;530;51.448;7.238;2022-09-09T06:36:34;3.90;;;2.20;;
1082;SDS011;530;51.448;7.238;2022-09-09T06:39:02;2.50;;;1.70;;
1082;SDS011;530;51.448;7.238;2022-09-09T06:41:28;3.03;;;1.70;;
1082;SDS011;530;51.448;7.238;2022-09-09T06:43:55;3.30;;;1.97;;
1082;SDS011;530;51.448;7.238;2022-09-09T06:46:22;6.93;;;2.87;;
1082;SDS011;530;51.448;7.238;2022-09-09T06:48:53;2.80;;;1.70;;
1082;SDS011;530;51.448;7.238;2022-09-09T06:51:28;3.80;;;2.00;;
1082;SDS011;530;51.448;7.238;2022-09-09T06:53:57;3.53;;;1.73;;
1082;SDS011;530;51.448;7.238;2022-09-09T06:56:28;4.27;;;1.70;;
1082;SDS011;530;51.448;7.238;2022-09-09T06:58:56;3.07;;;1.90;;
1082;SDS011;530;51.448;7.238;2022-09-09T07:01:24;6.10;;;1.83;;
1082;SDS011;530;51.448;7.238;2022-09-09T07:03:53;2.93;;;1.60;;
1082;SDS011;530;51.448;7.238;2022-09-09T07:06:24;3.53;;;1.90;;
1082;SDS011;530;51.448;7.238;2022-09-09T07:08:51;5.10;;;1.97;;
1082;SDS011;530;51.448;7.238;2022-09-09T07:11:19;4.90;;;2.27;;
1082;SDS011;530;51.448;7.238;2022-09-09T07:13:47;5.87;;;1.80;;
1082;SDS011;530;51.448;7.238;2022-09-09T07:16:17;2.00;;;1.30;;
1082;SDS011;530;51.448;7.238;2022-09-09T07:18:44;7.10;;;2.00;;
1082;SDS011;530;51.448;7.238;2022-09-09T07:21:10;3.40;;;1.73;;
1082;SDS011;530;51.448;7.238;2022-09-09T07:23:37;2.50;;;1.80;;
1082;SDS011;530;51.448;7.238;2022-09-09T07:26:10;5.63;;;1.60;;
1082;SDS011;530;51.448;7.238;2022-09-09T07:28:38;3.47;;;2.17;;
1082;SDS011;530;51.448;7.238;2022-09-09T07:31:05;3.60;;;1.40;;
1082;SDS011;530;51.448;7.238;2022-09-09T07:33:33;3.10;;;1.60;;
1082;SDS011;530;51.448;7.238;2022-09-09T07:36:07;4.43;;;1.50;;
1082;SDS011;530;51.448;7.238;2022-09-09T07:38:37;6.10;;;1.40;;
1082;SDS011;530;51.448;7.238;2022-09-09T07:41:09;6.23;;;1.80;;
1082;SDS011;530;51.448;7.238;2022-09-09T07:43:44;4.40;;;1.83;;
1082;SDS011;530;51.448;7.238;2022-09-09T07:46:11;2.87;;;1.60;;
1082;SDS011;530;51.448;7.238;2022-09-09T07:48:38;4.67;;;1.63;;
1082;SDS011;530;51.448;7.238;2022-09-09T07:51:09;4.83;;;1.67;;
1082;SDS011;530;51.448;7.238;2022-09-09T07:53:37;3.53;;;1.53;;
1082;SDS011;530;51.448;7.238;2022-09-09T07:56:06;3.67;;;1.63;;
1082;SDS011;530;51.448;7.238;2022-09-09T07:58:34;3.10;;;1.60;;
1082;SDS011;530;51.448;7.238;2022-09-09T08:01:06;4.73;;;1.73;;
1082;SDS011;530;51.448;7.238;2022-09-09T08:03:33;2.43;;;1.20;;
1082;SDS011;530;51.448;7.238;2022-09-09T08:06:02;2.80;;;1.37;;
1082;SDS011;530;51.448;7.238;2022-09-09T08:08:31;3.77;;;1.23;;
1082;SDS011;530;51.448;7.238;2022-09-09T08:11:03;2.60;;;1.17;;
1082;SDS011;530;51.448;7.238;2022-09-09T08:13:32;2.77;;;1.30;;
1082;SDS011;530;51.448;7.238;2022-09-09T08:18:38;3.73;;;1.33;;
1082;SDS011;530;51.448;7.238;2022-09-09T08:21:05;3.80;;;1.27;;
1082;SDS011;530;51.448;7.238;2022-09-09T08:23:33;2.07;;;1.30;;
1082;SDS011;530;51.448;7.238;2022-09-09T08:26:03;2.37;;;1.87;;
1082;SDS011;530;51.448;7.238;2022-09-09T08:28:35;2.63;;;1.30;;
1082;SDS011;530;51.448;7.238;2022-09-09T08:31:05;2.83;;;1.40;;
1082;SDS011;530;51.448;7.238;2022-09-09T08:33:42;2.97;;;1.37;;
1082;SDS011;530;51.448;7.238;2022-09-09T08:36:11;2.77;;;1.33;;
1082;SDS011;530;51.448;7.238;2022-09-09T08:38:40;3.40;;;1.90;;
1082;SDS011;530;51.448;7.238;2022-09-09T08:41:12;3.63;;;1.70;;
1082;SDS011;530;51.448;7.238;2022-09-09T08:43:43;5.07;;;1.40;;
1082;SDS011;530;51.448;7.238;2022-09-09T08:46:14;4.50;;;1.50;;
1082;SDS011;530;51.448;7.238;2022-09-09T08:51:13;3.60;;;1.50;;
1082;SDS011;530;51.448;7.238;2022-09-09T08:53:43;4.90;;;1.70;;
1082;SDS011;530;51.448;7.238;2022-09-09T08:56:16;2.90;;;1.50;;
1082;SDS011;530;51.448;7.238;2022-09-09T08:58:49;4.57;;;2.17;;
1082;SDS011;530;51.448;7.238;2022-09-09T09:04:13;3.73;;;2.27;;
1082;SDS011;530;51.448;7.238;2022-09-09T09:06:49;5.00;;;2.20;;
1082;SDS011;530;51.448;7.238;2022-09-09T09:09:31;4.07;;;2.30;;
1082;SDS011;530;51.448;7.238;2022-09-09T09:12:15;3.97;;;2.30;;
1082;SDS011;530;51.448;7.238;2022-09-09T09:14:43;3.40;;;1.60;;
1082;SDS011;530;51.448;7.238;2022-09-09T09:17:13;5.27;;;2.30;;
1082;SDS011;530;51.448;7.238;2022-09-09T09:19:44;4.67;;;1.90;;
1082;SDS011;530;51.448;7.238;2022-09-09T09:25:16;2.20;;;1.43;;
1082;SDS011;530;51.448;7.238;2022-09-09T09:27:59;2.57;;;2.00;;
1082;SDS011;530;51.448;7.238;2022-09-09T09:30:28;4.53;;;1.60;;
1082;SDS011;530;51.448;7.238;2022-09-09T09:33:00;3.77;;;1.90;;
1082;SDS011;530;51.448;7.238;2022-09-09T09:35:29;3.60;;;1.80;;
1082;SDS011;530;51.448;7.238;2022-09-09T09:37:55;3.83;;;1.60;;
1082;SDS011;530;51.448;7.238;2022-09-09T09:40:21;1.80;;;1.53;;
1082;SDS011;530;51.448;7.238;2022-09-09T09:42:54;3.60;;;1.57;;
1082;SDS011;530;51.448;7.238;2022-09-09T09:45:29;3.93;;;1.70;;
1082;SDS011;530;51.448;7.238;2022-09-09T09:48:03;3.70;;;1.40;;
1082;SDS011;530;51.448;7.238;2022-09-09T09:50:30;5.10;;;1.67;;
1082;SDS011;530;51.448;7.238;2022-09-09T09:52:58;4.43;;;1.60;;
1082;SDS011;530;51.448;7.238;2022-09-09T09:55:26;2.90;;;1.80;;
1082;SDS011;530;51.448;7.238;2022-09-09T09:58:00;4.03;;;1.20;;
1082;SDS011;530;51.448;7.238;2022-09-09T10:00:47;4.03;;;1.60;;
1082;SDS011;530;51.448;7.238;2022-09-09T10:03:28;2.33;;;1.57;;
1082;SDS011;530;51.448;7.238;2022-09-09T10:05:55;3.70;;;1.43;;
1082;SDS011;530;51.448;7.238;2022-09-09T10:08:22;4.30;;;2.17;;
1082;SDS011;530;51.448;7.238;2022-09-09T10:19:32;3.00;;;1.50;;
1082;SDS011;530;51.448;7.238;2022-09-09T10:27:27;4.73;;;1.73;;
1082;SDS011;530;51.448;7.238;2022-09-09T10:38:17;5.30;;;1.40;;
1082;SDS011;530;51.448;7.238;2022-09-09T10:51:40;2.93;;;1.20;;
1082;SDS011;530;51.448;7.238;2022-09-09T10:57:11;2.73;;;1.20;;
1082;SDS011;530;51.448;7.238;2022-09-09T10:59:53;4.17;;;1.10;;
1082;SDS011;530;51.448;7.238;2022-09-09T11:02:28;2.83;;;1.30;;
1082;SDS011;530;51.448;7.238;2022-09-09T11:05:04;1.70;;;1.10;;
1082;SDS011;530;51.448;7.238;2022-09-09T11:07:56;5.50;;;0.83;;
1082;SDS011;530;51.448;7.238;2022-09-09T11:10:45;3.47;;;0.90;;
1082;SDS011;530;51.448;7.238;2022-09-09T11:13:29;2.90;;;1.20;;
1082;SDS011;530;51.448;7.238;2022-09-09T11:18:38;2.10;;;1.30;;
1082;SDS011;530;51.448;7.238;2022-09-09T11:21:07;2.27;;;1.00;;
1082;SDS011;530;51.448;7.238;2022-09-09T11:23:48;3.83;;;1.13;;
1082;SDS011;530;51.448;7.238;2022-09-09T11:26:28;2.00;;;1.20;;
1082;SDS011;530;51.448;7.238;2022-09-09T11:31:46;3.57;;;1.20;;
1082;SDS011;530;51.448;7.238;2022-09-09T11:37:24;2.60;;;0.97;;
1082;SDS011;530;51.448;7.238;2022-09-09T11:42:48;2.33;;;1.30;;
1082;SDS011;530;51.448;7.238;2022-09-09T11:45:25;1.90;;;1.07;;
1082;SDS011;530;51.448;7.238;2022-09-09T11:47:57;3.33;;;1.10;;
1082;SDS011;530;51.448;7.238;2022-09-09T11:52:50;7.23;;;1.30;;
1082;SDS011;530;51.448;7.238;2022-09-09T11:58:02;1.70;;;1.03;;
1082;SDS011;530;51.448;7.238;2022-09-09T12:00:36;0.97;;;0.87;;
1082;SDS011;530;51.448;7.238;2022-09-09T12:03:33;1.93;;;1.17;;
1082;SDS011;530;51.448;7.238;2022-09-09T12:06:18;2.87;;;1.13;;
1082;SDS011;530;51.448;7.238;2022-09-09T12:08:52;1.30;;;0.93;;
1082;SDS011;530;51.448;7.238;2022-09-09T12:11:29;2.73;;;0.97;;
1082;SDS011;530;51.448;7.238;2022-09-09T12:13:56;2.93;;;1.33;;
1082;SDS011;530;51.448;7.238;2022-09-09T12:19:13;2.07;;;1.40;;
1082;SDS011;530;51.448;7.238;2022-09-09T12:21:51;2.93;;;1.17;;
1082;SDS011;530;51.448;7.238;2022-09-09T12:24:40;2.30;;;1.07;;
1082;SDS011;530;51.448;7.238;2022-09-09T12:27:34;2.90;;;1.47;;
1082;SDS011;530;51.448;7.238;2022-09-09T12:30:09;2.30;;;1.30;;
1082;SDS011;530;51.448;7.238;2022-09-09T12:32:37;1.80;;;1.10;;
1082;SDS011;530;51.448;7.238;2022-09-09T12:35:09;3.40;;;1.10;;
1082;SDS011;530;51.448;7.238;2022-09-09T12:42:47;2.70;;;1.57;;
1082;SDS011;530;51.448;7.238;2022-09-09T12:45:17;2.10;;;1.00;;
1082;SDS011;530;51.448;7.238;2022-09-09T12:47:46;4.07;;;1.33;;
1082;SDS011;530;51.448;7.238;2022-09-09T12:50:30;2.83;;;1.20;;
1082;SDS011;530;51.448;7.238;2022-09-09T12:53:02;2.10;;;1.20;;
1082;SDS011;530;51.448;7.238;2022-09-09T12:55:37;2.10;;;1.03;;
1082;SDS011;530;51.448;7.238;2022-09-09T12:58:04;2.33;;;1.43;;
1082;SDS011;530;51.448;7.238;2022-09-09T13:00:32;3.30;;;1.10;;
1082;SDS011;530;51.448;7.238;2022-09-09T13:03:00;2.23;;;1.03;;
1082;SDS011;530;51.448;7.238;2022-09-09T13:05:33;2.20;;;1.30;;
1082;SDS011;530;51.448;7.238;2022-09-09T13:08:01;4.23;;;1.23;;
1082;SDS011;530;51.448;7.238;2022-09-09T13:10:33;1.53;;;1.30;;
1082;SDS011;530;51.448;7.238;2022-09-09T13:13:04;2.60;;;1.00;;
1082;SDS011;530;51.448;7.238;2022-09-09T13:15:39;2.80;;;1.10;;
1082;SDS011;530;51.448;7.238;2022-09-09T13:18:06;1.80;;;1.17;;
1082;SDS011;530;51.448;7.238;2022-09-09T13:20:36;4.23;;;1.30;;
1082;SDS011;530;51.448;7.238;2022-09-09T13:23:02;1.93;;;1.30;;
1082;SDS011;530;51.448;7.238;2022-09-09T13:25:28;2.67;;;1.30;;
1082;SDS011;530;51.448;7.238;2022-09-09T13:27:58;0.83;;;0.83;;
1082;SDS011;530;51.448;7.238;2022-09-09T13:35:51;3.90;;;1.00;;
1082;SDS011;530;51.448;7.238;2022-09-09T13:38:18;2.50;;;1.10;;
1082;SDS011;530;51.448;7.238;2022-09-09T13:43:42;2.53;;;1.30;;
1082;SDS011;530;51.448;7.238;2022-09-09T13:51:37;2.03;;;1.00;;
1082;SDS011;530;51.448;7.238;2022-09-09T13:54:09;5.90;;;1.87;;
1082;SDS011;530;51.448;7.238;2022-09-09T13:56:35;1.50;;;1.10;;
1082;SDS011;530;51.448;7.238;2022-09-09T13:59:03;3.47;;;1.60;;
1082;SDS011;530;51.448;7.238;2022-09-09T14:01:30;2.77;;;1.20;;
1082;SDS011;530;51.448;7.238;2022-09-09T14:03:59;2.67;;;1.17;;
1082;SDS011;530;51.448;7.238;2022-09-09T14:06:25;2.30;;;1.00;;
1082;SDS011;530;51.448;7.238;2022-09-09T14:08:52;3.57;;;1.07;;
1082;SDS011;530;51.448;7.238;2022-09-09T14:11:19;3.30;;;1.30;;
1082;SDS011;530;51.448;7.238;2022-09-09T14:13:46;1.60;;;1.40;;
1082;SDS011;530;51.448;7.238;2022-09-09T14:16:15;2.10;;;1.00;;
1082;SDS011;530;51.448;7.238;2022-09-09T14:18:42;1.87;;;1.00;;
1082;SDS011;530;51.448;7.238;2022-09-09T14:21:09;1.67;;;1.00;;
1082;SDS011;530;51.448;7.238;2022-09-09T14:23:35;0.97;;;0.87;;
1082;SDS011;530;51.448;7.238;2022-09-09T14:26:00;3.10;;;1.30;;
1082;SDS011;530;51.448;7.238;2022-09-09T14:28:26;2.80;;;1.20;;
1082;SDS011;530;51.448;7.238;2022-09-09T14:30:53;2.10;;;0.90;;
1082;SDS011;530;51.448;7.238;2022-09-09T14:33:19;2.13;;;1.20;;
1082;SDS011;530;51.448;7.238;2022-09-09T14:35:45;2.73;;;1.17;;
1082;SDS011;530;51.448;7.238;2022-09-09T14:38:10;1.50;;;1.00;;
1082;SDS011;530;51.448;7.238;2022-09-09T14:40:36;2.40;;;1.00;;
1082;SDS011;530;51.448;7.238;2022-09-09T14:43:03;2.63;;;1.03;;
1082;SDS011;530;51.448;7.238;2022-09-09T14:45:29;1.40;;;0.90;;
1082;SDS011;530;51.448;7.238;2022-09-09T14:47:55;2.40;;;1.20;;
1082;SDS011;530;51.448;7.238;2022-09-09T14:50:21;3.83;;;1.60;;
1082;SDS011;530;51.448;7.238;2022-09-09T14:52:48;3.33;;;1.30;;
1082;SDS011;530;51.448;7.238;2022-09-09T14:55:14;2.83;;;1.20;;
1082;SDS011;530;51.448;7.238;2022-09-09T14:57:40;2.93;;;1.30;;
1082;SDS011;530;51.448;7.238;2022-09-09T15:00:07;3.13;;;1.80;;
1082;SDS011;530;51.448;7.238;2022-09-09T15:02:34;4.13;;;2.00;;
1082;SDS011;530;51.448;7.238;2022-09-09T15:04:59;1.90;;;1.50;;
1082;SDS011;530;51.448;7.238;2022-09-09T15:07:26;2.77;;;1.63;;
1082;SDS011;530;51.448;7.238;2022-09-09T15:09:53;1.60;;;1.43;;
1082;SDS011;530;51.448;7.238;2022-09-09T15:12:19;4.20;;;1.77;;
1082;SDS011;530;51.448;7.238;2022-09-09T15:14:45;3.73;;;1.50;;
1082;SDS011;530;51.448;7.238;2022-09-09T15:17:11;1.50;;;1.40;;
1082;SDS011;530;51.448;7.238;2022-09-09T15:19:38;2.90;;;1.73;;
1082;SDS011;530;51.448;7.238;2022-09-09T15:22:07;3.23;;;1.93;;
1082;SDS011;530;51.448;7.238;2022-09-09T15:24:33;1.67;;;1.40;;
1082;SDS011;530;51.448;7.238;2022-09-09T15:27:00;1.80;;;1.30;;
1082;SDS011;530;51.448;7.238;2022-09-09T15:29:26;1.20;;;0.80;;
1082;SDS011;530;51.448;7.238;2022-09-09T15:31:55;1.67;;;0.67;;
1082;SDS011;530;51.448;7.238;2022-09-09T15:34:21;2.90;;;0.97;;
1082;SDS011;530;51.448;7.238;2022-09-09T15:36:47;2.43;;;0.80;;
1082;SDS011;530;51.448;7.238;2022-09-09T15:39:16;1.83;;;0.60;;
1082;SDS011;530;51.448;7.238;2022-09-09T15:41:43;1.53;;;1.20;;
1082;SDS011;530;51.448;7.238;2022-09-09T15:44:13;1.30;;;0.70;;
1082;SDS011;530;51.448;7.238;2022-09-09T15:46:39;0.80;;;0.53;;
1082;SDS011;530;51.448;7.238;2022-09-09T15:49:20;1.20;;;0.47;;
1082;SDS011;530;51.448;7.238;2022-09-09T15:51:52;1.33;;;0.60;;
1082;SDS011;530;51.448;7.238;2022-09-09T15:54:19;0.90;;;0.60;;
1082;SDS011;530;51.448;7.238;2022-09-09T15:56:49;1.00;;;0.50;;
1082;SDS011;530;51.448;7.238;2022-09-09T15:59:26;1.37;;;0.50;;
1082;SDS011;530;51.448;7.238;2022-09-09T16:01:53;4.20;;;0.97;;
1082;SDS011;530;51.448;7.238;2022-09-09T16:04:20;1.43;;;0.60;;
1082;SDS011;530;51.448;7.238;2022-09-09T16:06:54;0.77;;;0.60;;
1082;SDS011;530;51.448;7.238;2022-09-09T16:09:22;2.47;;;0.70;;
1082;SDS011;530;51.448;7.238;2022-09-09T16:11:48;1.07;;;0.50;;
1082;SDS011;530;51.448;7.238;2022-09-09T16:14:14;1.20;;;0.60;;
1082;SDS011;530;51.448;7.238;2022-09-09T16:16:41;0.67;;;0.50;;
1082;SDS011;530;51.448;7.238;2022-09-09T16:19:08;2.70;;;0.70;;
1082;SDS011;530;51.448;7.238;2022-09-09T16:21:38;2.00;;;0.70;;
1082;SDS011;530;51.448;7.238;2022-09-09T16:24:06;1.87;;;0.70;;
1082;SDS011;530;51.448;7.238;2022-09-09T16:26:33;1.40;;;0.70;;
1082;SDS011;530;51.448;7.238;2022-09-09T16:29:00;1.93;;;0.90;;
1082;SDS011;530;51.448;7.238;2022-09-09T16:31:27;3.00;;;1.00;;
1082;SDS011;530;51.448;7.238;2022-09-09T16:33:54;0.87;;;0.73;;
1082;SDS011;530;51.448;7.238;2022-09-09T16:36:21;1.07;;;0.70;;
1082;SDS011;530;51.448;7.238;2022-09-09T16:38:51;1.47;;;0.70;;
1082;SDS011;530;51.448;7.238;2022-09-09T16:41:22;1.57;;;0.80;;
1082;SDS011;530;51.448;7.238;2022-09-09T16:43:52;1.83;;;0.83;;
1082;SDS011;530;51.448;7.238;2022-09-09T16:46:21;1.53;;;1.00;;
1082;SDS011;530;51.448;7.238;2022-09-09T16:48:49;3.87;;;1.40;;
1082;SDS011;530;51.448;7.238;2022-09-09T16:51:20;1.37;;;1.00;;
1082;SDS011;530;51.448;7.238;2022-09-09T16:53:51;1.07;;;0.93;;
1082;SDS011;530;51.448;7.238;2022-09-09T16:56:22;2.10;;;1.10;;
1082;SDS011;530;51.448;7.238;2022-09-09T16:58:51;2.13;;;1.13;;
1082;SDS011;530;51.448;7.238;2022-09-09T17:01:20;2.03;;;1.20;;
1082;SDS011;530;51.448;7.238;2022-09-09T17:03:47;1.77;;;1.03;;
1082;SDS011;530;51.448;7.238;2022-09-09T17:06:16;2.60;;;1.37;;
1082;SDS011;530;51.448;7.238;2022-09-09T17:08:42;2.73;;;1.30;;
1082;SDS011;530;51.448;7.238;2022-09-09T17:11:12;3.60;;;1.30;;
1082;SDS011;530;51.448;7.238;2022-09-09T17:13:43;1.20;;;1.10;;
1082;SDS011;530;51.448;7.238;2022-09-09T17:16:10;3.50;;;1.10;;
1082;SDS011;530;51.448;7.238;2022-09-09T17:18:37;3.93;;;1.47;;
1082;SDS011;530;51.448;7.238;2022-09-09T17:21:07;2.50;;;0.93;;
1082;SDS011;530;51.448;7.238;2022-09-09T17:23:39;1.67;;;1.20;;
1082;SDS011;530;51.448;7.238;2022-09-09T17:26:05;2.60;;;2.13;;
1082;SDS011;530;51.448;7.238;2022-09-09T17:28:36;2.43;;;1.20;;
1082;SDS011;530;51.448;7.238;2022-09-09T17:31:03;2.43;;;1.50;;
1082;SDS011;530;51.448;7.238;2022-09-09T17:33:35;1.60;;;0.90;;
1082;SDS011;530;51.448;7.238;2022-09-09T17:36:07;2.63;;;1.10;;
1082;SDS011;530;51.448;7.238;2022-09-09T17:38:36;3.70;;;1.30;;
1082;SDS011;530;51.448;7.238;2022-09-09T17:43:30;2.40;;;1.90;;
1082;SDS011;530;51.448;7.238;2022-09-09T17:46:04;2.00;;;1.60;;
1082;SDS011;530;51.448;7.238;2022-09-09T17:48:34;4.23;;;1.50;;